• Join FlightAware (Why Join?)
  • Login
  • US Flag 
10:10PM EDT


 

Airport Tracker/Info


-or-


 

Live Flight TrackerFlight Track Log ✈ N52712 ✈ 25-Apr-2013 ✈ KBED - KASH

Flight Track Log - Related Links

Times and Time Zones

All times are in EDT time to prevent confusion due to time zone crossing. See the N52712 flight status page for this flight to view local times or setup timezone preferences in your user account.

Time Position Orientation Groundspeed Altitude Reporting Facility
EDT Latitude Longitude Course Direction KTS MPH feet Rate Location/Type
01:30PM 42.4667 -71.3000 270° West 74 85 1,000  Level KA90
01:31PM 42.4667 -71.3167 270° West 68 78 1,600 720 Climbing KA90
01:32PM 42.4667 -71.3333 270° West 74 85 2,300 540 Climbing KA90
01:33PM 42.5000 -71.3333 360° North 88 101 2,800 540 Climbing KA90
01:34PM 42.5167 -71.3167 36° Northeast 97 112 3,400 60 Climbing KA90
01:35PM 42.5500 -71.3167 360° North 110 127 3,000 -240 Descending KA90
01:36PM 42.5833 -71.3167 360° North 103 119 3,000  Level KA90
01:37PM 42.6000 -71.3167 360° North 98 113 3,100 60 Climbing KA90
01:38PM 42.6333 -71.3167 360° North 104 120 3,200 -120 Climbing KA90
01:39PM 42.6667 -71.3333 340° North 108 124 2,900  Descending KA90
01:40PM 42.7000 -71.3333 360° North 100 115 3,200  Climbing KA90
01:41PM 42.7167 -71.3333 360° North 111 128 3,000 -60 Descending KA90
01:42PM 42.7500 -71.3333 360° North 115 132 3,100  Climbing KA90
01:43PM 42.7833 -71.3500 340° North 110 127 3,000 -60 Descending KA90
01:44PM 42.8167 -71.3500 360° North 99 114 3,000  Level KA90
01:45PM 42.8333 -71.3667 324° Northwest 113 130 3,100  Climbing KA90
01:46PM 42.8667 -71.3667 360° North 107 123 3,100  Level KA90
01:47PM 42.8833 -71.3667 360° North 94 108 3,100 -120 Level KA90
01:48PM 42.9000 -71.3333 56° Northeast 102 117 2,900 -420 Descending KA90
01:49PM 42.8833 -71.3333 180° South 96 110 2,400 -540 Descending KA90
01:50PM 42.8667 -71.3667 236° Southwest 97 112 1,900 -240 Descending KA90
01:51PM 42.8500 -71.4000 236° Southwest 95 109 2,000 -420 Climbing KA90
01:52PM 42.8333 -71.4167 216° Southwest 88 101 1,100 -540 Descending KA90
01:53PM 42.8333 -71.4500 270° West 84 97 1,000 -120 Descending KA90
01:54PM 42.8167 -71.4667 216° Southwest 84 97 900 -60 Descending KA90
01:55PM 42.8000 -71.5000 236° Southwest 84 97 900 180 Level KA90
01:56PM 42.7833 -71.5167 216° Southwest 90 104 1,300 600 Climbing KA90
01:57PM 42.7833 -71.5333 270° West 88 101 2,100 780 Climbing KA90
01:58PM 42.8000 -71.5167 36° Northeast 112 129 2,800 420 Climbing KA90
01:59PM 42.8167 -71.4667 66° East 112 129 3,000 120 Climbing KA90
02:00PM 42.8333 -71.4333 56° Northeast 122 140 3,100  Climbing KA90
02:01PM 42.8500 -71.4000 56° Northeast 118 136 3,100 -120 Level KA90
02:02PM 42.8667 -71.3667 56° Northeast 118 136 2,900 -240 Descending KA90